• Join FlightAware (Why Join?)
  • Login
  • US Flag 
10:01AM EST


 

Airport Tracker/Info


-or-


 

Live Flight TrackerFlight Track Log ✈ SWA1457 ✈ 07-Mar-2014 ✈ KBWI - KCLE

Flight Track Log - Related Links

Times and Time Zones

All times are in EST time to prevent confusion due to time zone crossing. See the SWA1457 flight status page for this flight to view local times or setup timezone preferences in your user account.

Time Position Orientation Groundspeed Altitude Reporting Facility
EST Latitude Longitude Course Direction KTS MPH feet Rate Location/Type
10:05PM 39.1667 -76.8000 270° West 242 278 4,400  Level Potomac TRACON
10:06PM 39.2000 -76.8833 297° West 252 290 8,800 2,400 Climbing Potomac TRACON
10:08PM 39.2878 -77.0692 301° West 277 319 12,300 2,220 Climbing Washington Center
10:09PM 39.3408 -77.1669 305° West 305 351 15,800 3,420 Climbing Washington Center
10:10PM 39.3997 -77.2728 306° West 340 391 19,200 3,180 Climbing Washington Center
10:11PM 39.4567 -77.3844 303° West 362 417 22,200 2,880 Climbing Washington Center
10:12PM 39.5214 -77.4989 306° West 376 433 25,000 1,920 Climbing Washington Center
10:14PM 39.6558 -77.7517 305° West 399 459 28,300 1,560 Climbing Cleveland Center
10:15PM 39.7156 -77.8692 303° West 393 452 30,000 780 Climbing Cleveland Center
10:16PM 39.7800 -77.9892 305° West 406 467 30,000  Level Cleveland Center
10:17PM 39.8478 -78.1128 306° West 417 480 30,000  Level Cleveland Center
10:18PM 39.9181 -78.2336 307° West 418 481 30,000  Level Cleveland Center
10:19PM 39.9903 -78.3592 307° West 418 481 30,000  Level Cleveland Center
10:20PM 40.0589 -78.4822 306° West 420 483 30,000  Level Cleveland Center
10:21PM 40.1283 -78.6036 307° West 420 483 30,000  Level Cleveland Center
10:22PM 40.2114 -78.7525 306° West 421 484 30,000  Level Cleveland Center
10:23PM 40.2817 -78.8758 307° West 421 484 30,000  Level Cleveland Center
10:24PM 40.3506 -79.0000 306° West 422 486 30,000  Level Cleveland Center
10:26PM 40.4197 -79.1231 306° West 422 486 30,000  Level Cleveland Center
10:27PM 40.4881 -79.2467 306° West 422 486 30,000  Level Cleveland Center
10:28PM 40.5653 -79.3856 306° West 421 484 30,000  Level Cleveland Center
10:29PM 40.6331 -79.5083 306° West 421 484 30,000 -180 Level Cleveland Center
10:30PM 40.7003 -79.6300 306° West 418 481 29,700 -720 Descending Cleveland Center
10:31PM 40.7644 -79.7492 305° West 408 470 28,600 -1,080 Descending Cleveland Center
10:32PM 40.8264 -79.8622 306° West 389 448 27,600 -1,020 Descending Cleveland Center
10:33PM 40.8883 -79.9758 306° West 388 447 26,600 -1,020 Descending Cleveland Center
10:34PM 40.9489 -80.0881 306° West 379 436 25,600 -1,140 Descending Cleveland Center
10:35PM 41.0194 -80.2200 305° West 371 427 24,400 -840 Descending Cleveland Center
10:36PM 41.0781 -80.3283 306° West 367 422 24,000 -240 Descending Cleveland Center
10:37PM 41.1317 -80.4289 305° West 362 417 24,000 -480 Level Cleveland Center
10:38PM 41.1886 -80.5378 305° West 361 415 23,100 -1,920 Descending Cleveland Center
10:39PM 41.2492 -80.6503 306° West 368 423 20,200 -2,940 Descending Cleveland Center
10:39PM 41.2900 -80.7292 305° West 369 425 18,400 -2,820 Descending Cleveland Center
10:40PM 41.3061 -80.7622 303° West 365 420 17,700 -1,620 Descending Cleveland Center
10:40PM 41.3078 -80.7617 14° North 368 423 17,700 -2,520 Level Cleveland Center
10:41PM 41.3694 -80.8828 304° West 340 391 14,900 -2,880 Descending Cleveland Center
10:41PM 41.3717 -80.8844 331° Northwest 346 398 14,800 -2,400 Descending Cleveland Center
10:42PM 41.4239 -80.9856 305° West 331 381 12,500 -2,400 Descending Cleveland Center
10:42PM 41.4256 -80.9858 353° North 338 389 12,400 -2,040 Descending Cleveland Center
10:43PM 41.4722 -81.0819 303° West 319 367 10,500 -1,920 Descending Cleveland Center
10:43PM 41.4753 -81.0842 331° Northwest 323 372 10,500 -540 Level Cleveland Center
10:44PM 41.4978 -81.1753 288° West 263 303 10,000 -600 Descending Cleveland Center
10:44PM 41.4969 -81.1811 259° West 294 338 9,900 -1,320 Descending Cleveland Center
10:45PM 41.4958 -81.2697 269° West 243 280 8,700 -1,320 Descending Cleveland Center
10:45PM 41.4978 -81.2739 302° West 259 298 8,600 -1,380 Descending Cleveland Center
10:46PM 41.4981 -81.3667 270° West 251 289 7,200 -1,260 Descending Cleveland Center
10:47PM 41.5006 -81.4547 272° West 231 266 6,200 -1,020 Descending Cleveland Center
10:47PM 41.5003 -81.4531 103° East 239 275 6,200 -1,440 Level Cleveland Center
10:48PM 41.5017 -81.5358 271° West 218 251 4,800 -1,380 Descending Cleveland Center
10:48PM 41.5028 -81.5347 37° Northeast 226 260 4,800 -840 Level Cleveland Center
10:49PM 41.5031 -81.6142 270° West 217 250 4,000 -840 Descending Cleveland Center
10:49PM 41.5047 -81.6150 339° North 223 257 4,000 -900 Level Cleveland Center
10:50PM 41.5006 -81.6892 266° West 203 234 3,100 -900 Descending Cleveland Center
10:50PM 41.5017 -81.6903 323° Northwest 211 243 3,100 -480 Level Cleveland Center
10:51PM 41.4758 -81.7522 241° Southwest 163 188 2,600 -420 Descending Cleveland Center
10:51PM 41.4781 -81.7497 40° Northeast 191 220 2,700 -720 Climbing Cleveland Center
10:52PM 41.4492 -81.7900 226° Southwest 109 125 1,900 -840 Descending Cleveland Center
10:52PM 41.4517 -81.7842 60° Northeast 152 175 1,900 -720 Level Cleveland Center
10:53PM 41.4272 -81.8225 230° Southwest 120 138 1,200 -720 Descending Cleveland Center
10:53PM 41.4272 -81.8225 230° Southwest 125 144 1,200 -480 Level Cleveland Center
10:54PM 41.4053 -81.8569 230° Southwest 124 143 700 -540 Descending Cleveland Center
10:56PM 41.4000 -81.8500 North  Level FlightAware Approximate